createdAt,value
2022-12-18T00:00:07.381Z,-1.72
2022-12-18T00:03:01.989Z,-0.97
2022-12-18T00:05:30.257Z,2.75
2022-12-18T00:07:58.279Z,5.01
2022-12-18T00:10:26.297Z,3.87
2022-12-18T00:12:54.362Z,2.21
2022-12-18T00:15:22.384Z,1.00
2022-12-18T00:17:50.374Z,0.16
2022-12-18T00:20:22.917Z,-0.44
2022-12-18T00:22:50.938Z,-0.91
2022-12-18T00:25:19.267Z,-0.03
2022-12-18T00:27:47.334Z,3.43
2022-12-18T00:30:16.059Z,4.83
2022-12-18T00:32:44.116Z,3.14
2022-12-18T00:35:12.393Z,1.60
2022-12-18T00:37:40.452Z,0.53
2022-12-18T00:40:09.411Z,-0.22
2022-12-18T00:42:57.023Z,-0.80
2022-12-18T00:45:30.937Z,-1.27
2022-12-18T00:47:59.192Z,-1.61
2022-12-18T00:50:27.834Z,-1.86
2022-12-18T00:52:55.838Z,-1.44
2022-12-18T00:55:24.070Z,1.96
2022-12-18T00:57:53.588Z,4.73
2022-12-18T01:00:22.183Z,3.91
2022-12-18T01:02:50.840Z,2.22
2022-12-18T01:05:19.754Z,0.98
2022-12-18T01:07:47.896Z,0.17
2022-12-18T01:10:16.283Z,-0.46
2022-12-18T01:12:44.366Z,-0.97
2022-12-18T01:15:14.412Z,-1.39
2022-12-18T01:17:42.689Z,-1.73
2022-12-18T01:20:14.013Z,-2.01
2022-12-18T01:22:42.084Z,-2.26
2022-12-18T01:25:10.270Z,-1.65
2022-12-18T01:27:38.343Z,1.88
2022-12-18T01:30:07.460Z,4.22
2022-12-18T01:32:35.508Z,2.95
2022-12-18T01:35:04.748Z,1.37
2022-12-18T01:37:32.838Z,0.26
2022-12-18T01:40:00.901Z,-0.55
2022-12-18T01:42:28.973Z,-1.12
2022-12-18T01:45:05.356Z,-1.55
2022-12-18T01:47:33.377Z,-1.95
2022-12-18T01:50:11.934Z,-2.26
2022-12-18T01:52:43.725Z,-2.51
2022-12-18T01:55:13.642Z,-2.70
2022-12-18T01:57:42.526Z,-2.86
2022-12-18T02:00:16.652Z,-3.00
2022-12-18T02:02:46.206Z,-2.12
2022-12-18T02:05:24.664Z,1.78
2022-12-18T02:08:11.752Z,4.18
2022-12-18T02:11:01.322Z,2.65
2022-12-18T02:13:36.476Z,1.02
2022-12-18T02:16:25.707Z,0.07
2022-12-18T02:19:00.392Z,-0.65
2022-12-18T02:22:11.722Z,-1.14
2022-12-18T02:24:49.629Z,-1.63
2022-12-18T02:27:19.572Z,-1.96
2022-12-18T02:29:57.854Z,-2.22
2022-12-18T02:32:31.869Z,-2.44
2022-12-18T02:35:02.925Z,-2.63
2022-12-18T02:37:33.546Z,-2.58
2022-12-18T02:40:05.709Z,0.38
2022-12-18T02:42:34.421Z,3.59
2022-12-18T02:45:02.965Z,2.91
2022-12-18T02:47:35.504Z,1.40
2022-12-18T02:50:19.314Z,0.28
2022-12-18T02:53:17.670Z,-0.48
2022-12-18T02:56:16.857Z,-1.02
2022-12-18T02:59:06.900Z,-1.44
2022-12-18T03:01:55.219Z,-1.77
2022-12-18T03:04:40.822Z,0.16
2022-12-18T03:07:16.686Z,4.14
2022-12-18T03:09:50.491Z,4.00
2022-12-18T03:12:23.994Z,2.22
2022-12-18T03:15:17.845Z,0.92
2022-12-18T03:17:53.083Z,-0.04
2022-12-18T03:20:23.610Z,-0.69
2022-12-18T03:22:58.661Z,-1.16
2022-12-18T03:25:29.049Z,-1.57
2022-12-18T03:27:59.858Z,-0.85
2022-12-18T03:30:30.924Z,2.99
2022-12-18T03:33:25.147Z,3.76
2022-12-18T03:35:56.285Z,1.79
2022-12-18T03:38:24.804Z,0.58
2022-12-18T03:41:01.414Z,-0.29
2022-12-18T03:43:56.402Z,-0.94
2022-12-18T03:46:39.805Z,-1.45
2022-12-18T03:49:30.688Z,-1.80
2022-12-18T03:52:27.211Z,-2.10
2022-12-18T03:54:59.183Z,-1.08
2022-12-18T03:57:31.344Z,2.81
2022-12-18T04:00:13.039Z,4.30
2022-12-18T04:02:56.784Z,2.35
2022-12-18T04:05:34.440Z,0.95
2022-12-18T04:08:03.674Z,0.01
2022-12-18T04:10:32.364Z,-0.66
2022-12-18T04:13:03.919Z,-1.15
2022-12-18T04:15:36.029Z,-1.52
2022-12-18T04:18:04.949Z,-1.73
2022-12-18T04:20:39.152Z,0.87
2022-12-18T04:23:07.194Z,4.09
2022-12-18T04:25:35.690Z,3.35
2022-12-18T04:28:09.477Z,1.67
2022-12-18T04:30:39.336Z,0.47
2022-12-18T04:33:12.446Z,-0.32
2022-12-18T04:35:41.542Z,-0.94
2022-12-18T04:38:11.026Z,-1.35
2022-12-18T04:40:40.301Z,0.74
2022-12-18T04:43:15.763Z,3.73
2022-12-18T04:45:43.883Z,2.87
2022-12-18T04:48:11.947Z,1.42
2022-12-18T04:50:40.478Z,0.38
2022-12-18T04:53:09.058Z,-0.33
2022-12-18T04:55:38.141Z,-0.86
2022-12-18T04:58:06.903Z,-1.28
2022-12-18T05:00:34.886Z,-1.61
2022-12-18T05:03:03.671Z,-0.95
2022-12-18T05:05:32.292Z,2.87
2022-12-18T05:08:01.207Z,4.80
2022-12-18T05:10:33.456Z,3.34
2022-12-18T05:13:05.839Z,1.73
2022-12-18T05:15:34.851Z,0.72
2022-12-18T05:18:04.846Z,0.03
2022-12-18T05:20:32.899Z,-0.50
2022-12-18T05:23:00.926Z,-0.90
2022-12-18T05:25:29.176Z,-1.22
2022-12-18T05:27:57.529Z,-1.36
2022-12-18T05:30:26.155Z,1.20
2022-12-18T05:32:54.920Z,4.22
2022-12-18T05:35:23.118Z,3.61
2022-12-18T05:37:51.210Z,2.05
2022-12-18T05:40:19.394Z,0.90
2022-12-18T05:42:47.431Z,0.08
2022-12-18T05:45:15.473Z,-0.52
2022-12-18T05:47:43.500Z,-0.85
2022-12-18T05:50:11.501Z,1.61
2022-12-18T05:52:39.507Z,4.59
2022-12-18T05:55:07.881Z,3.88
2022-12-18T05:57:35.865Z,2.33
2022-12-18T06:00:04.845Z,1.14
2022-12-18T06:02:40.414Z,0.23
2022-12-18T06:05:08.984Z,-0.38
2022-12-18T06:07:37.049Z,-0.84
2022-12-18T06:10:05.618Z,-1.09
2022-12-18T06:12:34.682Z,1.29
2022-12-18T06:15:02.842Z,4.22
2022-12-18T06:17:34.202Z,3.34
2022-12-18T06:20:02.467Z,1.83
2022-12-18T06:22:33.213Z,0.80
2022-12-18T06:25:01.239Z,0.10
2022-12-18T06:27:29.779Z,-0.43
2022-12-18T06:29:57.919Z,-0.85
2022-12-18T06:32:26.044Z,-1.20
2022-12-18T06:34:55.004Z,-0.05
2022-12-18T06:37:27.230Z,3.64
2022-12-18T06:39:55.362Z,4.65
2022-12-18T06:42:24.340Z,2.94
2022-12-18T06:44:52.688Z,1.46
2022-12-18T06:47:20.767Z,0.44
2022-12-18T06:49:48.758Z,-0.31
2022-12-18T06:52:16.790Z,0.21
2022-12-18T06:54:44.773Z,3.67
2022-12-18T06:57:12.809Z,4.80
2022-12-18T06:59:40.839Z,3.23
2022-12-18T07:02:13.776Z,1.79
2022-12-18T07:04:42.018Z,0.76
2022-12-18T07:07:10.011Z,0.03
2022-12-18T07:09:38.069Z,-0.49
2022-12-18T07:12:06.211Z,-0.33
2022-12-18T07:14:34.221Z,2.86
2022-12-18T07:17:02.523Z,5.08
2022-12-18T07:19:31.186Z,3.80
2022-12-18T07:22:00.867Z,2.24
2022-12-18T07:24:29.551Z,1.18
2022-12-18T07:26:57.603Z,0.44
2022-12-18T07:29:25.742Z,-0.13
2022-12-18T07:31:53.825Z,-0.58
2022-12-18T07:34:21.920Z,-0.95
2022-12-18T07:36:49.934Z,-1.23
2022-12-18T07:39:17.987Z,-0.49
2022-12-18T07:42:05.911Z,3.23
2022-12-18T07:44:34.601Z,5.17
2022-12-18T07:47:03.955Z,3.60
2022-12-18T07:49:33.561Z,2.12
2022-12-18T07:52:02.795Z,1.16
2022-12-18T07:54:30.858Z,0.44
2022-12-18T07:56:58.929Z,-0.10
2022-12-18T07:59:27.410Z,-0.48
2022-12-18T08:01:55.592Z,-0.78
2022-12-18T08:04:23.809Z,-1.05
2022-12-18T08:06:52.367Z,-0.96
2022-12-18T08:09:20.486Z,2.18
2022-12-18T08:11:48.501Z,5.03
2022-12-18T08:14:16.504Z,4.00
2022-12-18T08:16:44.772Z,2.45
2022-12-18T08:19:12.933Z,1.34
2022-12-18T08:21:41.297Z,0.61
2022-12-18T08:24:11.021Z,0.06
2022-12-18T08:26:39.222Z,-0.37
2022-12-18T08:29:07.245Z,-0.72
2022-12-18T08:31:35.429Z,-0.95
2022-12-18T08:34:03.656Z,0.93
2022-12-18T08:36:31.701Z,4.47
2022-12-18T08:38:59.743Z,4.76
2022-12-18T08:41:28.454Z,3.09
2022-12-18T08:44:15.347Z,1.76
2022-12-18T08:46:45.037Z,0.77
2022-12-18T08:49:13.408Z,0.22
2022-12-18T08:51:41.534Z,-0.14
2022-12-18T08:54:12.752Z,-0.39
2022-12-18T08:56:40.776Z,-0.61
2022-12-18T08:59:15.802Z,-0.27
2022-12-18T09:01:48.432Z,3.18
2022-12-18T09:04:16.761Z,5.29
2022-12-18T09:06:44.814Z,4.07
2022-12-18T09:09:13.066Z,2.70
2022-12-18T09:11:41.091Z,1.78
2022-12-18T09:14:10.917Z,1.14
2022-12-18T09:16:39.260Z,0.68
2022-12-18T09:19:07.465Z,0.30
2022-12-18T09:21:37.397Z,-0.03
2022-12-18T09:24:08.886Z,-0.30
2022-12-18T09:26:38.148Z,-0.53
2022-12-18T09:29:08.445Z,-0.75
2022-12-18T09:31:37.542Z,-0.04
2022-12-18T09:34:05.598Z,3.61
2022-12-18T09:36:34.211Z,4.94
2022-12-18T09:39:07.598Z,3.53
2022-12-18T09:41:51.849Z,2.22
2022-12-18T09:44:26.002Z,1.33
2022-12-18T09:47:21.856Z,0.76
2022-12-18T09:50:32.942Z,0.29
2022-12-18T09:53:07.800Z,-0.17
2022-12-18T09:55:44.345Z,-0.48
2022-12-18T09:58:16.647Z,-0.72
2022-12-18T10:00:44.785Z,-0.90
2022-12-18T10:03:16.741Z,-1.04
2022-12-18T10:06:06.467Z,-0.40
2022-12-18T10:08:40.996Z,3.63
2022-12-18T10:11:34.146Z,5.65
2022-12-18T10:14:22.757Z,4.21
2022-12-18T10:16:53.863Z,2.60
2022-12-18T10:19:50.467Z,1.66
2022-12-18T10:22:42.795Z,0.93
2022-12-18T10:25:24.030Z,0.44
2022-12-18T10:27:59.656Z,0.10
2022-12-18T10:30:27.861Z,-0.16
2022-12-18T10:33:02.144Z,-0.42
2022-12-18T10:35:30.412Z,-0.62
2022-12-18T10:38:04.635Z,1.39
2022-12-18T10:40:33.618Z,4.42
2022-12-18T10:43:14.249Z,3.73
2022-12-18T10:45:43.402Z,2.30
2022-12-18T10:48:25.169Z,1.35
2022-12-18T10:53:44.133Z,0.17
2022-12-18T10:56:13.554Z,-0.15
2022-12-18T10:58:41.998Z,-0.42
2022-12-18T11:01:14.861Z,-0.67
2022-12-18T11:04:08.607Z,-0.92
2022-12-18T11:06:55.069Z,-0.30
2022-12-18T11:09:26.084Z,3.74
2022-12-18T11:11:58.045Z,4.30
2022-12-18T11:14:30.036Z,2.84
2022-12-18T11:20:01.124Z,0.84
2022-12-18T11:22:32.852Z,0.33
2022-12-18T11:25:30.682Z,-0.01
2022-12-18T11:27:57.680Z,-0.32
2022-12-18T11:30:25.713Z,-0.54
2022-12-18T11:33:35.316Z,-0.72
2022-12-18T11:36:06.956Z,2.04
2022-12-18T11:38:41.948Z,4.63
2022-12-18T11:41:44.449Z,3.53
2022-12-18T11:44:21.144Z,1.91
2022-12-18T11:46:57.030Z,1.00
2022-12-18T11:49:34.679Z,0.43
2022-12-18T11:52:39.285Z,0.04
2022-12-18T11:55:54.410Z,-0.33
2022-12-18T11:58:49.049Z,-0.66
2022-12-18T12:02:02.338Z,-0.92
2022-12-18T12:04:47.170Z,-1.16
2022-12-18T12:07:27.744Z,-1.31
2022-12-18T12:10:14.555Z,-1.41
2022-12-18T12:13:01.220Z,-1.51
2022-12-18T12:15:41.184Z,-1.62
2022-12-18T12:18:27.781Z,-1.72
2022-12-18T12:21:31.087Z,0.24
2022-12-18T12:24:24.033Z,4.56
2022-12-18T12:27:16.326Z,3.81
2022-12-18T12:30:00.358Z,2.00
2022-12-18T12:32:37.092Z,0.91
2022-12-18T12:35:09.622Z,0.25
2022-12-18T12:38:15.676Z,-0.18
2022-12-18T12:41:06.492Z,-0.58
2022-12-18T12:46:38.149Z,-1.11
2022-12-18T12:49:15.423Z,-1.26
2022-12-18T12:51:48.355Z,-1.40
2022-12-18T12:54:22.046Z,-1.53
2022-12-18T12:57:10.874Z,-1.67
2022-12-18T13:00:04.827Z,-0.51
2022-12-18T13:03:14.338Z,3.80
2022-12-18T13:05:42.355Z,5.04
2022-12-18T13:08:12.394Z,3.34
2022-12-18T13:10:44.035Z,2.03
2022-12-18T13:13:17.256Z,1.18
2022-12-18T13:16:07.696Z,0.58
2022-12-18T13:18:36.504Z,0.13
2022-12-18T13:21:21.276Z,-0.17
2022-12-18T13:23:50.668Z,-0.46
2022-12-18T13:26:23.218Z,-0.78
2022-12-18T13:28:57.944Z,-1.09
2022-12-18T13:31:41.878Z,-1.36
2022-12-18T13:34:27.524Z,-1.59
2022-12-18T13:37:18.095Z,-1.76
2022-12-18T13:39:46.287Z,-1.88
2022-12-18T13:42:35.590Z,-1.96
2022-12-18T13:45:43.874Z,-1.95
2022-12-18T13:48:19.397Z,1.61
2022-12-18T13:50:56.490Z,4.20
2022-12-18T13:53:29.965Z,3.04
2022-12-18T13:55:58.645Z,1.69
2022-12-18T13:58:26.767Z,0.81
2022-12-18T14:00:55.471Z,0.23
2022-12-18T14:03:29.422Z,-0.19
2022-12-18T14:06:04.231Z,-0.53
2022-12-18T14:08:40.923Z,-0.79
2022-12-18T14:11:21.398Z,-1.02
2022-12-18T14:13:51.120Z,-1.23
2022-12-18T14:16:19.837Z,-1.39
2022-12-18T14:19:07.296Z,-1.53
2022-12-18T14:21:49.204Z,-1.65
2022-12-18T14:24:21.190Z,-1.74
2022-12-18T14:26:51.368Z,-1.81
2022-12-18T14:29:27.114Z,-1.88
2022-12-18T14:32:33.452Z,-1.95
2022-12-18T14:35:14.271Z,-2.01
2022-12-18T14:37:42.255Z,-2.07
2022-12-18T14:40:14.238Z,-2.12
2022-12-18T14:42:43.203Z,-2.17
2022-12-18T14:45:39.113Z,-2.22
2022-12-18T14:48:21.712Z,-2.29
2022-12-18T14:51:16.015Z,-2.31
2022-12-18T14:53:53.716Z,-1.25
2022-12-18T14:56:25.748Z,2.94
2022-12-18T14:59:00.283Z,4.54
2022-12-18T15:01:38.193Z,3.08
2022-12-18T15:04:24.418Z,1.79
2022-12-18T15:07:23.934Z,0.96
2022-12-18T15:10:25.018Z,0.40
2022-12-18T15:13:03.682Z,0.01
2022-12-18T15:15:35.126Z,-0.28
2022-12-18T15:18:12.832Z,-0.52
2022-12-18T15:20:56.351Z,-0.76
2022-12-18T15:23:25.954Z,-0.98
2022-12-18T15:26:00.006Z,-1.20
2022-12-18T15:28:34.664Z,-1.42
2022-12-18T15:31:15.018Z,-1.61
2022-12-18T15:33:55.005Z,-1.76
2022-12-18T15:36:26.804Z,-1.87
2022-12-18T15:39:05.032Z,-1.98
2022-12-18T15:41:37.266Z,-2.09
2022-12-18T15:44:26.548Z,-2.16
2022-12-18T15:46:58.057Z,-2.23
2022-12-18T15:49:26.485Z,-2.29
2022-12-18T15:52:02.911Z,-2.33
2022-12-18T15:54:49.670Z,-1.59
2022-12-18T15:57:26.693Z,2.75
2022-12-18T15:59:59.279Z,4.55
2022-12-18T16:02:29.692Z,3.13
2022-12-18T16:04:58.187Z,1.87
2022-12-18T16:07:29.161Z,1.08
2022-12-18T16:09:59.421Z,0.55
2022-12-18T16:12:30.466Z,0.15
2022-12-18T16:14:58.562Z,-0.17
2022-12-18T16:17:26.605Z,-0.45
2022-12-18T16:19:55.045Z,-0.68
2022-12-18T16:22:29.043Z,-0.87
2022-12-18T16:24:58.229Z,-1.05
2022-12-18T16:27:27.126Z,-1.23
2022-12-18T16:29:55.365Z,-1.39
2022-12-18T16:32:24.465Z,-1.53
2022-12-18T16:34:52.810Z,-1.67
2022-12-18T16:37:20.907Z,-1.79
2022-12-18T16:39:48.978Z,-1.92
2022-12-18T16:42:20.657Z,-2.02
2022-12-18T16:44:50.567Z,-2.11
2022-12-18T16:47:19.881Z,-2.19
2022-12-18T16:49:51.839Z,-2.27
2022-12-18T16:52:21.037Z,-2.35
2022-12-18T16:54:49.175Z,-1.60
2022-12-18T16:57:20.191Z,2.21
2022-12-18T16:59:49.988Z,4.27
2022-12-18T17:02:23.620Z,3.01
2022-12-18T17:04:55.561Z,1.67
2022-12-18T17:07:24.921Z,0.82
2022-12-18T17:09:54.868Z,0.26
2022-12-18T17:12:23.914Z,-0.13
2022-12-18T17:14:51.987Z,-0.46
2022-12-18T17:17:22.641Z,-0.76
2022-12-18T17:19:52.554Z,-0.99
2022-12-18T17:22:23.513Z,-1.20
2022-12-18T17:24:51.734Z,-1.37
2022-12-18T17:27:19.975Z,-1.53
2022-12-18T17:29:48.993Z,-1.71
2022-12-18T17:32:18.024Z,-1.84
2022-12-18T17:34:46.344Z,-1.98
2022-12-18T17:37:14.772Z,-2.11
2022-12-18T17:39:43.174Z,-2.23
2022-12-18T17:42:14.841Z,-2.36
2022-12-18T17:44:44.502Z,-2.48
2022-12-18T17:47:14.181Z,-2.57
2022-12-18T17:49:42.224Z,-2.11
2022-12-18T17:52:10.923Z,1.45
2022-12-18T17:54:41.582Z,4.09
2022-12-18T17:57:10.554Z,3.02
2022-12-18T17:59:38.695Z,1.65
2022-12-18T18:02:07.499Z,0.74
2022-12-18T18:04:36.456Z,0.14
2022-12-18T18:07:04.707Z,-0.28
2022-12-18T18:09:32.830Z,-0.60
2022-12-18T18:12:19.726Z,-0.87
2022-12-18T18:14:48.197Z,-1.13
2022-12-18T18:17:16.197Z,-1.33
2022-12-18T18:19:46.806Z,-1.51
2022-12-18T18:22:19.143Z,-1.71
2022-12-18T18:24:48.234Z,-1.93
2022-12-18T18:27:16.441Z,-2.11
2022-12-18T18:29:45.171Z,-2.28
2022-12-18T18:32:13.322Z,-2.41
2022-12-18T18:34:42.085Z,-2.54
2022-12-18T18:37:12.112Z,-2.61
2022-12-18T18:39:40.197Z,-0.48
2022-12-18T18:42:08.451Z,3.22
2022-12-18T18:44:36.995Z,3.18
2022-12-18T18:47:06.974Z,1.67
2022-12-18T18:49:37.917Z,0.52
2022-12-18T18:52:07.311Z,-0.21
2022-12-18T18:54:35.576Z,-0.73
2022-12-18T18:57:20.561Z,-1.12
2022-12-18T18:59:49.259Z,-1.48
2022-12-18T19:02:18.127Z,-1.79
2022-12-18T19:04:47.124Z,-2.06
2022-12-18T19:07:30.158Z,-2.29
2022-12-18T19:10:04.411Z,-2.52
2022-12-18T19:12:53.376Z,-2.69
2022-12-18T19:15:23.035Z,-2.86
2022-12-18T19:17:51.198Z,-2.99
2022-12-18T19:20:19.524Z,-3.09
2022-12-18T19:22:55.126Z,-2.58
2022-12-18T19:25:40.723Z,1.33
2022-12-18T19:28:21.577Z,3.70
2022-12-18T19:30:57.259Z,2.20
2022-12-18T19:33:45.057Z,0.84
2022-12-18T19:36:28.394Z,-0.08
2022-12-18T19:39:00.031Z,-0.71
2022-12-18T19:41:31.410Z,-1.15
2022-12-18T19:44:02.225Z,-1.49
2022-12-18T19:46:37.150Z,-1.78
2022-12-18T19:49:11.960Z,-2.03
2022-12-18T19:51:46.296Z,-2.29
2022-12-18T19:54:17.273Z,-2.51
2022-12-18T19:56:46.909Z,-2.70
2022-12-18T19:59:14.986Z,-2.87
2022-12-18T20:01:43.381Z,-3.00
2022-12-18T20:04:11.550Z,-2.46
2022-12-18T20:06:51.632Z,1.39
2022-12-18T20:09:20.516Z,3.56
2022-12-18T20:11:49.874Z,2.16
2022-12-18T20:14:23.163Z,0.85
2022-12-18T20:16:52.645Z,-0.02
2022-12-18T20:19:22.515Z,-0.61
2022-12-18T20:21:50.737Z,-1.01
2022-12-18T20:24:19.354Z,-1.33
2022-12-18T20:26:47.465Z,-1.58
2022-12-18T20:29:15.512Z,-1.78
2022-12-18T20:31:43.631Z,-1.97
2022-12-18T20:34:12.270Z,-2.16
2022-12-18T20:36:41.178Z,-2.34
2022-12-18T20:39:10.942Z,-2.50
2022-12-18T20:41:40.473Z,-2.63
2022-12-18T20:44:21.904Z,-2.76
2022-12-18T20:46:58.266Z,-2.93
2022-12-18T20:49:27.337Z,-3.08
2022-12-18T20:51:58.149Z,-3.21
2022-12-18T20:54:27.882Z,-3.34
2022-12-18T20:56:56.985Z,-3.45
2022-12-18T20:59:26.153Z,-3.53
2022-12-18T21:01:54.713Z,-2.82
2022-12-18T21:04:24.076Z,1.13
2022-12-18T21:07:00.770Z,3.32
2022-12-18T21:09:37.680Z,1.94
2022-12-18T21:12:36.543Z,0.48
2022-12-18T21:15:16.500Z,-0.68
2022-12-18T21:17:45.433Z,-1.25
2022-12-18T21:20:17.917Z,-1.69
2022-12-18T21:22:49.463Z,-2.07
2022-12-18T21:25:17.722Z,-2.36
2022-12-18T21:27:45.754Z,-2.62
2022-12-18T21:30:15.259Z,-2.83
2022-12-18T21:32:43.366Z,-3.01
2022-12-18T21:35:11.513Z,-3.16
2022-12-18T21:37:42.235Z,-3.30
2022-12-18T21:40:14.493Z,-2.47
2022-12-18T21:43:01.436Z,1.52
2022-12-18T21:45:29.459Z,3.05
2022-12-18T21:47:57.706Z,1.47
2022-12-18T21:50:25.818Z,0.16
2022-12-18T21:52:53.833Z,-0.73
2022-12-18T21:55:21.889Z,-1.36
2022-12-18T21:57:50.411Z,-1.86
2022-12-18T22:00:19.750Z,-2.26
2022-12-18T22:02:49.272Z,-2.58
2022-12-18T22:05:37.685Z,-2.90
2022-12-18T22:08:07.116Z,-3.17
2022-12-18T22:10:36.588Z,-3.43
2022-12-18T22:13:06.863Z,-3.64
2022-12-18T22:15:35.000Z,-3.80
2022-12-18T22:18:03.264Z,-3.93
2022-12-18T22:20:31.262Z,-3.87
2022-12-18T22:23:04.370Z,-0.91
2022-12-18T22:25:35.345Z,2.46
2022-12-18T22:28:25.638Z,1.56
2022-12-18T22:30:59.654Z,-0.09
2022-12-18T22:33:28.600Z,-1.06
2022-12-18T22:35:56.785Z,-1.71
2022-12-18T22:38:25.042Z,-2.17
2022-12-18T22:40:53.057Z,-2.53
2022-12-18T22:43:21.530Z,-2.84
2022-12-18T22:45:49.621Z,-3.11
2022-12-18T22:48:18.001Z,-3.37
2022-12-18T22:50:47.243Z,-3.57
2022-12-18T22:53:17.191Z,-3.77
2022-12-18T22:55:45.306Z,-3.94
2022-12-18T22:58:13.364Z,-4.07
2022-12-18T23:00:41.415Z,-4.18
2022-12-18T23:03:09.956Z,-3.60
2022-12-18T23:05:38.230Z,0.20
2022-12-18T23:08:06.266Z,2.38
2022-12-18T23:10:37.780Z,1.11
2022-12-18T23:13:05.831Z,-0.30
2022-12-18T23:15:34.257Z,-1.23
2022-12-18T23:18:02.272Z,-1.85
2022-12-18T23:20:30.783Z,-2.30
2022-12-18T23:22:58.802Z,-2.68
2022-12-18T23:25:26.840Z,-3.00
2022-12-18T23:27:54.867Z,-3.30
2022-12-18T23:30:22.926Z,-3.55
2022-12-18T23:32:51.249Z,-3.79
2022-12-18T23:35:19.424Z,-4.00
2022-12-18T23:37:58.750Z,-4.20
2022-12-18T23:40:29.590Z,-4.39
2022-12-18T23:43:00.342Z,-4.57
2022-12-18T23:45:28.400Z,-3.90
2022-12-18T23:47:56.496Z,0.20
2022-12-18T23:50:28.764Z,3.72
2022-12-18T23:53:04.820Z,5.38
2022-12-18T23:55:39.927Z,3.84
2022-12-18T23:58:20.241Z,1.73
